sensor_id;sensor_type;location;lat;lon;timestamp;P1;durP1;ratioP1;P2;durP2;ratioP2
49061;SDS011;34873;49.142;9.118;2023-11-22T00:01:10;4.78;;;2.47;;
49061;SDS011;34873;49.142;9.118;2023-11-22T00:03:36;6.22;;;2.33;;
49061;SDS011;34873;49.142;9.118;2023-11-22T00:06:01;6.28;;;3.08;;
49061;SDS011;34873;49.142;9.118;2023-11-22T00:08:27;3.60;;;2.63;;
49061;SDS011;34873;49.142;9.118;2023-11-22T00:10:55;3.55;;;2.58;;
49061;SDS011;34873;49.142;9.118;2023-11-22T00:13:20;4.25;;;2.80;;
49061;SDS011;34873;49.142;9.118;2023-11-22T00:15:48;3.28;;;2.25;;
49061;SDS011;34873;49.142;9.118;2023-11-22T00:18:15;3.67;;;2.42;;
49061;SDS011;34873;49.142;9.118;2023-11-22T00:20:45;3.13;;;2.42;;
49061;SDS011;34873;49.142;9.118;2023-11-22T00:23:13;3.47;;;2.45;;
49061;SDS011;34873;49.142;9.118;2023-11-22T00:25:39;5.25;;;2.58;;
49061;SDS011;34873;49.142;9.118;2023-11-22T00:28:07;5.20;;;2.60;;
49061;SDS011;34873;49.142;9.118;2023-11-22T00:30:33;3.78;;;2.63;;
49061;SDS011;34873;49.142;9.118;2023-11-22T00:33:01;12.45;;;3.03;;
49061;SDS011;34873;49.142;9.118;2023-11-22T00:35:28;10.40;;;3.53;;
49061;SDS011;34873;49.142;9.118;2023-11-22T00:37:57;10.35;;;3.20;;
49061;SDS011;34873;49.142;9.118;2023-11-22T00:40:27;6.18;;;2.70;;
49061;SDS011;34873;49.142;9.118;2023-11-22T00:42:53;4.60;;;3.17;;
49061;SDS011;34873;49.142;9.118;2023-11-22T00:45:18;4.20;;;2.65;;
49061;SDS011;34873;49.142;9.118;2023-11-22T00:47:44;5.95;;;2.80;;
49061;SDS011;34873;49.142;9.118;2023-11-22T00:50:11;4.07;;;2.58;;
49061;SDS011;34873;49.142;9.118;2023-11-22T00:52:39;6.05;;;3.58;;
49061;SDS011;34873;49.142;9.118;2023-11-22T00:55:04;4.90;;;2.65;;
49061;SDS011;34873;49.142;9.118;2023-11-22T00:57:32;4.63;;;2.80;;
49061;SDS011;34873;49.142;9.118;2023-11-22T00:59:58;5.00;;;2.42;;
49061;SDS011;34873;49.142;9.118;2023-11-22T01:02:23;4.15;;;2.40;;
49061;SDS011;34873;49.142;9.118;2023-11-22T01:04:48;6.07;;;2.65;;
49061;SDS011;34873;49.142;9.118;2023-11-22T01:07:14;6.80;;;2.85;;
49061;SDS011;34873;49.142;9.118;2023-11-22T01:09:42;4.40;;;2.60;;
49061;SDS011;34873;49.142;9.118;2023-11-22T01:12:09;5.30;;;2.80;;
49061;SDS011;34873;49.142;9.118;2023-11-22T01:14:37;4.75;;;2.50;;
49061;SDS011;34873;49.142;9.118;2023-11-22T01:17:03;4.43;;;2.70;;
49061;SDS011;34873;49.142;9.118;2023-11-22T01:19:28;5.57;;;2.28;;
49061;SDS011;34873;49.142;9.118;2023-11-22T01:21:54;4.93;;;2.58;;
49061;SDS011;34873;49.142;9.118;2023-11-22T01:24:19;4.35;;;2.80;;
49061;SDS011;34873;49.142;9.118;2023-11-22T01:26:45;3.13;;;2.47;;
49061;SDS011;34873;49.142;9.118;2023-11-22T01:29:10;3.15;;;2.47;;
49061;SDS011;34873;49.142;9.118;2023-11-22T01:31:37;2.90;;;2.33;;
49061;SDS011;34873;49.142;9.118;2023-11-22T01:34:03;5.63;;;2.70;;
49061;SDS011;34873;49.142;9.118;2023-11-22T01:36:29;4.55;;;2.47;;
49061;SDS011;34873;49.142;9.118;2023-11-22T01:38:55;4.88;;;2.72;;
49061;SDS011;34873;49.142;9.118;2023-11-22T01:41:23;7.22;;;3.55;;
49061;SDS011;34873;49.142;9.118;2023-11-22T01:43:49;3.08;;;2.10;;
49061;SDS011;34873;49.142;9.118;2023-11-22T01:46:22;4.53;;;2.80;;
49061;SDS011;34873;49.142;9.118;2023-11-22T01:48:56;5.25;;;2.78;;
49061;SDS011;34873;49.142;9.118;2023-11-22T01:51:22;3.35;;;2.42;;
49061;SDS011;34873;49.142;9.118;2023-11-22T01:53:53;7.18;;;2.60;;
49061;SDS011;34873;49.142;9.118;2023-11-22T01:56:25;8.85;;;2.97;;
49061;SDS011;34873;49.142;9.118;2023-11-22T01:58:51;3.85;;;1.98;;
49061;SDS011;34873;49.142;9.118;2023-11-22T02:01:20;6.70;;;2.47;;
49061;SDS011;34873;49.142;9.118;2023-11-22T02:03:48;4.88;;;2.80;;
49061;SDS011;34873;49.142;9.118;2023-11-22T02:06:15;4.15;;;2.45;;
49061;SDS011;34873;49.142;9.118;2023-11-22T02:08:41;3.42;;;2.70;;
49061;SDS011;34873;49.142;9.118;2023-11-22T02:11:07;6.68;;;2.85;;
49061;SDS011;34873;49.142;9.118;2023-11-22T02:13:33;2.65;;;2.35;;
49061;SDS011;34873;49.142;9.118;2023-11-22T02:16:01;4.05;;;2.45;;
49061;SDS011;34873;49.142;9.118;2023-11-22T02:18:29;8.70;;;2.85;;
49061;SDS011;34873;49.142;9.118;2023-11-22T02:20:55;3.33;;;2.40;;
49061;SDS011;34873;49.142;9.118;2023-11-22T02:23:21;5.97;;;2.67;;
49061;SDS011;34873;49.142;9.118;2023-11-22T02:25:49;4.28;;;2.45;;
49061;SDS011;34873;49.142;9.118;2023-11-22T02:28:16;4.10;;;2.85;;
49061;SDS011;34873;49.142;9.118;2023-11-22T02:30:44;3.10;;;2.47;;
49061;SDS011;34873;49.142;9.118;2023-11-22T02:33:09;8.85;;;2.80;;
49061;SDS011;34873;49.142;9.118;2023-11-22T02:35:35;2.72;;;2.25;;
49061;SDS011;34873;49.142;9.118;2023-11-22T02:38:00;4.57;;;2.88;;
49061;SDS011;34873;49.142;9.118;2023-11-22T02:40:26;8.93;;;3.55;;
49061;SDS011;34873;49.142;9.118;2023-11-22T02:42:53;3.97;;;2.50;;
49061;SDS011;34873;49.142;9.118;2023-11-22T02:45:25;4.97;;;2.63;;
49061;SDS011;34873;49.142;9.118;2023-11-22T02:47:51;2.90;;;2.30;;
49061;SDS011;34873;49.142;9.118;2023-11-22T02:50:17;4.18;;;2.63;;
49061;SDS011;34873;49.142;9.118;2023-11-22T02:52:45;4.18;;;2.70;;
49061;SDS011;34873;49.142;9.118;2023-11-22T02:55:10;3.42;;;2.40;;
49061;SDS011;34873;49.142;9.118;2023-11-22T02:57:41;5.45;;;2.92;;
49061;SDS011;34873;49.142;9.118;2023-11-22T03:00:08;4.28;;;2.50;;
49061;SDS011;34873;49.142;9.118;2023-11-22T03:02:34;4.40;;;2.20;;
49061;SDS011;34873;49.142;9.118;2023-11-22T03:05:00;2.47;;;2.28;;
49061;SDS011;34873;49.142;9.118;2023-11-22T03:07:26;4.72;;;2.60;;
49061;SDS011;34873;49.142;9.118;2023-11-22T03:09:51;3.92;;;2.90;;
49061;SDS011;34873;49.142;9.118;2023-11-22T03:12:18;4.22;;;2.38;;
49061;SDS011;34873;49.142;9.118;2023-11-22T03:14:45;4.07;;;2.60;;
49061;SDS011;34873;49.142;9.118;2023-11-22T03:17:11;19.77;;;2.65;;
49061;SDS011;34873;49.142;9.118;2023-11-22T03:19:38;4.55;;;3.47;;
49061;SDS011;34873;49.142;9.118;2023-11-22T03:22:05;5.22;;;2.85;;
49061;SDS011;34873;49.142;9.118;2023-11-22T03:24:31;4.88;;;2.70;;
49061;SDS011;34873;49.142;9.118;2023-11-22T03:27:00;3.83;;;2.85;;
49061;SDS011;34873;49.142;9.118;2023-11-22T03:29:28;5.93;;;2.70;;
49061;SDS011;34873;49.142;9.118;2023-11-22T03:31:54;3.33;;;2.60;;
49061;SDS011;34873;49.142;9.118;2023-11-22T03:34:22;4.43;;;2.47;;
49061;SDS011;34873;49.142;9.118;2023-11-22T03:36:47;7.25;;;3.78;;
49061;SDS011;34873;49.142;9.118;2023-11-22T03:39:14;13.52;;;3.70;;
49061;SDS011;34873;49.142;9.118;2023-11-22T03:41:40;3.33;;;2.55;;
49061;SDS011;34873;49.142;9.118;2023-11-22T03:44:07;4.32;;;2.50;;
49061;SDS011;34873;49.142;9.118;2023-11-22T03:46:36;2.60;;;2.28;;
49061;SDS011;34873;49.142;9.118;2023-11-22T03:49:05;3.15;;;2.35;;
49061;SDS011;34873;49.142;9.118;2023-11-22T03:51:34;8.15;;;2.50;;
49061;SDS011;34873;49.142;9.118;2023-11-22T03:54:03;5.15;;;2.55;;
49061;SDS011;34873;49.142;9.118;2023-11-22T03:56:29;4.53;;;2.80;;
49061;SDS011;34873;49.142;9.118;2023-11-22T03:58:56;2.95;;;2.72;;
49061;SDS011;34873;49.142;9.118;2023-11-22T04:01:22;4.53;;;2.45;;
49061;SDS011;34873;49.142;9.118;2023-11-22T04:03:47;3.45;;;2.40;;
49061;SDS011;34873;49.142;9.118;2023-11-22T04:06:14;2.95;;;2.40;;
49061;SDS011;34873;49.142;9.118;2023-11-22T04:08:41;4.93;;;2.50;;
49061;SDS011;34873;49.142;9.118;2023-11-22T04:11:09;4.05;;;2.60;;
49061;SDS011;34873;49.142;9.118;2023-11-22T04:13:35;3.50;;;2.47;;
49061;SDS011;34873;49.142;9.118;2023-11-22T04:16:03;3.13;;;2.83;;
49061;SDS011;34873;49.142;9.118;2023-11-22T04:18:33;4.43;;;2.60;;
49061;SDS011;34873;49.142;9.118;2023-11-22T04:21:00;4.50;;;3.00;;
49061;SDS011;34873;49.142;9.118;2023-11-22T04:23:26;2.83;;;2.55;;
49061;SDS011;34873;49.142;9.118;2023-11-22T04:25:51;2.78;;;2.42;;
49061;SDS011;34873;49.142;9.118;2023-11-22T04:28:17;4.72;;;2.75;;
49061;SDS011;34873;49.142;9.118;2023-11-22T04:30:43;7.15;;;2.72;;
49061;SDS011;34873;49.142;9.118;2023-11-22T04:33:08;6.97;;;3.22;;
49061;SDS011;34873;49.142;9.118;2023-11-22T04:35:34;5.50;;;2.75;;
49061;SDS011;34873;49.142;9.118;2023-11-22T04:38:02;10.02;;;3.10;;
49061;SDS011;34873;49.142;9.118;2023-11-22T04:40:29;2.58;;;2.38;;
49061;SDS011;34873;49.142;9.118;2023-11-22T04:42:54;5.75;;;2.83;;
49061;SDS011;34873;49.142;9.118;2023-11-22T04:45:20;3.88;;;2.47;;
49061;SDS011;34873;49.142;9.118;2023-11-22T04:47:45;4.05;;;2.42;;
49061;SDS011;34873;49.142;9.118;2023-11-22T04:50:10;8.23;;;2.85;;
49061;SDS011;34873;49.142;9.118;2023-11-22T04:52:36;3.22;;;2.50;;
49061;SDS011;34873;49.142;9.118;2023-11-22T04:55:04;4.10;;;2.45;;
49061;SDS011;34873;49.142;9.118;2023-11-22T04:57:30;4.60;;;2.67;;
49061;SDS011;34873;49.142;9.118;2023-11-22T04:59:55;5.65;;;2.67;;
49061;SDS011;34873;49.142;9.118;2023-11-22T05:02:21;4.20;;;3.13;;
49061;SDS011;34873;49.142;9.118;2023-11-22T05:04:46;2.85;;;2.58;;
49061;SDS011;34873;49.142;9.118;2023-11-22T05:07:14;4.43;;;2.70;;
49061;SDS011;34873;49.142;9.118;2023-11-22T05:09:42;2.88;;;2.50;;
49061;SDS011;34873;49.142;9.118;2023-11-22T05:12:09;3.22;;;2.88;;
49061;SDS011;34873;49.142;9.118;2023-11-22T05:14:35;13.55;;;2.75;;
49061;SDS011;34873;49.142;9.118;2023-11-22T05:17:01;3.45;;;2.75;;
49061;SDS011;34873;49.142;9.118;2023-11-22T05:19:26;3.08;;;2.72;;
49061;SDS011;34873;49.142;9.118;2023-11-22T05:21:54;2.60;;;2.40;;
49061;SDS011;34873;49.142;9.118;2023-11-22T05:24:19;3.80;;;2.33;;
49061;SDS011;34873;49.142;9.118;2023-11-22T05:26:45;3.70;;;2.50;;
49061;SDS011;34873;49.142;9.118;2023-11-22T05:29:10;3.72;;;2.88;;
49061;SDS011;34873;49.142;9.118;2023-11-22T05:31:35;4.18;;;2.90;;
49061;SDS011;34873;49.142;9.118;2023-11-22T05:34:02;4.03;;;2.78;;
49061;SDS011;34873;49.142;9.118;2023-11-22T05:36:28;3.72;;;2.67;;
49061;SDS011;34873;49.142;9.118;2023-11-22T05:38:54;3.70;;;2.75;;
49061;SDS011;34873;49.142;9.118;2023-11-22T05:41:20;3.78;;;2.30;;
49061;SDS011;34873;49.142;9.118;2023-11-22T05:43:45;3.10;;;2.42;;
49061;SDS011;34873;49.142;9.118;2023-11-22T05:46:11;2.72;;;2.28;;
49061;SDS011;34873;49.142;9.118;2023-11-22T05:48:37;2.92;;;2.38;;
49061;SDS011;34873;49.142;9.118;2023-11-22T05:51:03;3.55;;;2.45;;
49061;SDS011;34873;49.142;9.118;2023-11-22T05:53:28;3.20;;;2.33;;
49061;SDS011;34873;49.142;9.118;2023-11-22T05:55:54;4.53;;;2.75;;
49061;SDS011;34873;49.142;9.118;2023-11-22T05:58:19;3.08;;;2.35;;
49061;SDS011;34873;49.142;9.118;2023-11-22T06:00:46;3.10;;;2.38;;
49061;SDS011;34873;49.142;9.118;2023-11-22T06:03:12;3.58;;;2.78;;
49061;SDS011;34873;49.142;9.118;2023-11-22T06:05:40;3.25;;;2.65;;
49061;SDS011;34873;49.142;9.118;2023-11-22T06:08:06;4.10;;;2.75;;
49061;SDS011;34873;49.142;9.118;2023-11-22T06:10:34;5.35;;;2.70;;
49061;SDS011;34873;49.142;9.118;2023-11-22T06:12:59;5.03;;;2.95;;
49061;SDS011;34873;49.142;9.118;2023-11-22T06:15:25;6.35;;;2.83;;
49061;SDS011;34873;49.142;9.118;2023-11-22T06:17:50;3.08;;;2.40;;
49061;SDS011;34873;49.142;9.118;2023-11-22T06:20:16;4.03;;;2.45;;
49061;SDS011;34873;49.142;9.118;2023-11-22T06:22:44;5.70;;;2.45;;
49061;SDS011;34873;49.142;9.118;2023-11-22T06:25:12;4.38;;;2.55;;
49061;SDS011;34873;49.142;9.118;2023-11-22T06:27:37;3.67;;;2.60;;
49061;SDS011;34873;49.142;9.118;2023-11-22T06:30:08;2.40;;;2.20;;
49061;SDS011;34873;49.142;9.118;2023-11-22T06:32:36;3.25;;;2.80;;
49061;SDS011;34873;49.142;9.118;2023-11-22T06:35:02;2.78;;;2.40;;
49061;SDS011;34873;49.142;9.118;2023-11-22T06:37:30;3.70;;;2.70;;
49061;SDS011;34873;49.142;9.118;2023-11-22T06:39:56;3.30;;;2.47;;
49061;SDS011;34873;49.142;9.118;2023-11-22T06:42:25;3.47;;;2.60;;
49061;SDS011;34873;49.142;9.118;2023-11-22T06:44:52;3.35;;;2.55;;
49061;SDS011;34873;49.142;9.118;2023-11-22T06:47:19;2.65;;;2.45;;
49061;SDS011;34873;49.142;9.118;2023-11-22T06:49:47;3.10;;;2.17;;
49061;SDS011;34873;49.142;9.118;2023-11-22T06:52:12;4.00;;;2.28;;
49061;SDS011;34873;49.142;9.118;2023-11-22T06:54:38;4.28;;;2.78;;
49061;SDS011;34873;49.142;9.118;2023-11-22T06:57:03;4.00;;;2.65;;
49061;SDS011;34873;49.142;9.118;2023-11-22T06:59:29;3.13;;;2.78;;
49061;SDS011;34873;49.142;9.118;2023-11-22T07:01:54;6.57;;;2.92;;
49061;SDS011;34873;49.142;9.118;2023-11-22T07:04:21;5.15;;;2.90;;
49061;SDS011;34873;49.142;9.118;2023-11-22T07:06:48;2.88;;;2.67;;
49061;SDS011;34873;49.142;9.118;2023-11-22T07:09:14;5.32;;;3.17;;
49061;SDS011;34873;49.142;9.118;2023-11-22T07:11:39;4.40;;;2.55;;
49061;SDS011;34873;49.142;9.118;2023-11-22T07:14:05;2.92;;;2.00;;
49061;SDS011;34873;49.142;9.118;2023-11-22T07:16:31;2.15;;;1.85;;
49061;SDS011;34873;49.142;9.118;2023-11-22T07:19:02;1.95;;;1.80;;
49061;SDS011;34873;49.142;9.118;2023-11-22T07:21:28;3.33;;;1.58;;
49061;SDS011;34873;49.142;9.118;2023-11-22T07:23:55;1.70;;;1.50;;
49061;SDS011;34873;49.142;9.118;2023-11-22T07:26:24;1.60;;;1.50;;
49061;SDS011;34873;49.142;9.118;2023-11-22T07:28:52;4.28;;;1.60;;
49061;SDS011;34873;49.142;9.118;2023-11-22T07:31:18;2.50;;;1.88;;
49061;SDS011;34873;49.142;9.118;2023-11-22T07:33:50;3.95;;;1.70;;
49061;SDS011;34873;49.142;9.118;2023-11-22T07:36:20;4.95;;;2.13;;
49061;SDS011;34873;49.142;9.118;2023-11-22T07:38:49;2.30;;;1.63;;
49061;SDS011;34873;49.142;9.118;2023-11-22T07:41:18;3.55;;;1.70;;
49061;SDS011;34873;49.142;9.118;2023-11-22T07:43:51;3.30;;;1.60;;
49061;SDS011;34873;49.142;9.118;2023-11-22T07:46:19;4.78;;;2.00;;
49061;SDS011;34873;49.142;9.118;2023-11-22T07:48:45;4.68;;;1.38;;
49061;SDS011;34873;49.142;9.118;2023-11-22T07:51:12;2.70;;;1.60;;
49061;SDS011;34873;49.142;9.118;2023-11-22T07:53:40;1.80;;;1.35;;
49061;SDS011;34873;49.142;9.118;2023-11-22T07:56:08;1.98;;;1.08;;
49061;SDS011;34873;49.142;9.118;2023-11-22T07:58:37;1.80;;;1.10;;
49061;SDS011;34873;49.142;9.118;2023-11-22T08:01:02;2.15;;;1.10;;
49061;SDS011;34873;49.142;9.118;2023-11-22T08:03:34;1.30;;;0.95;;
49061;SDS011;34873;49.142;9.118;2023-11-22T08:06:00;1.38;;;1.13;;
49061;SDS011;34873;49.142;9.118;2023-11-22T08:08:28;1.95;;;0.70;;
49061;SDS011;34873;49.142;9.118;2023-11-22T08:10:54;1.10;;;0.63;;
49061;SDS011;34873;49.142;9.118;2023-11-22T08:13:24;0.85;;;0.80;;
49061;SDS011;34873;49.142;9.118;2023-11-22T08:15:49;0.88;;;0.88;;
49061;SDS011;34873;49.142;9.118;2023-11-22T08:18:15;1.23;;;0.98;;
49061;SDS011;34873;49.142;9.118;2023-11-22T08:20:42;2.42;;;0.98;;
49061;SDS011;34873;49.142;9.118;2023-11-22T08:23:12;0.60;;;0.60;;
49061;SDS011;34873;49.142;9.118;2023-11-22T08:25:40;0.73;;;0.73;;
49061;SDS011;34873;49.142;9.118;2023-11-22T08:28:06;0.90;;;0.73;;
49061;SDS011;34873;49.142;9.118;2023-11-22T08:30:37;0.93;;;0.50;;
49061;SDS011;34873;49.142;9.118;2023-11-22T08:33:06;0.93;;;0.80;;
49061;SDS011;34873;49.142;9.118;2023-11-22T08:35:33;0.95;;;0.95;;
49061;SDS011;34873;49.142;9.118;2023-11-22T08:38:00;0.63;;;0.60;;
49061;SDS011;34873;49.142;9.118;2023-11-22T08:40:28;0.90;;;0.90;;
49061;SDS011;34873;49.142;9.118;2023-11-22T08:42:54;0.70;;;0.70;;
49061;SDS011;34873;49.142;9.118;2023-11-22T08:45:23;0.60;;;0.60;;
49061;SDS011;34873;49.142;9.118;2023-11-22T08:47:48;0.70;;;0.70;;
49061;SDS011;34873;49.142;9.118;2023-11-22T08:50:16;0.55;;;0.55;;
49061;SDS011;34873;49.142;9.118;2023-11-22T08:52:45;0.65;;;0.57;;
49061;SDS011;34873;49.142;9.118;2023-11-22T08:55:12;0.70;;;0.70;;
49061;SDS011;34873;49.142;9.118;2023-11-22T08:57:42;0.90;;;0.90;;
49061;SDS011;34873;49.142;9.118;2023-11-22T09:00:10;0.55;;;0.55;;
49061;SDS011;34873;49.142;9.118;2023-11-22T09:02:39;0.45;;;0.40;;
49061;SDS011;34873;49.142;9.118;2023-11-22T09:05:09;1.17;;;0.40;;
49061;SDS011;34873;49.142;9.118;2023-11-22T09:07:35;0.60;;;0.60;;
49061;SDS011;34873;49.142;9.118;2023-11-22T09:10:07;0.75;;;0.55;;
49061;SDS011;34873;49.142;9.118;2023-11-22T09:12:41;1.48;;;0.47;;
49061;SDS011;34873;49.142;9.118;2023-11-22T09:15:07;0.50;;;0.50;;
49061;SDS011;34873;49.142;9.118;2023-11-22T09:17:41;0.77;;;0.70;;
49061;SDS011;34873;49.142;9.118;2023-11-22T09:20:15;0.43;;;0.43;;
49061;SDS011;34873;49.142;9.118;2023-11-22T09:22:42;0.57;;;0.35;;
49061;SDS011;34873;49.142;9.118;2023-11-22T09:25:16;0.50;;;0.50;;
49061;SDS011;34873;49.142;9.118;2023-11-22T09:27:42;0.35;;;0.35;;
49061;SDS011;34873;49.142;9.118;2023-11-22T09:30:12;0.40;;;0.40;;
49061;SDS011;34873;49.142;9.118;2023-11-22T09:32:52;4.75;;;0.43;;
49061;SDS011;34873;49.142;9.118;2023-11-22T09:35:20;0.50;;;0.50;;
49061;SDS011;34873;49.142;9.118;2023-11-22T09:37:48;1.42;;;0.85;;
49061;SDS011;34873;49.142;9.118;2023-11-22T09:40:16;1.95;;;0.63;;
49061;SDS011;34873;49.142;9.118;2023-11-22T09:42:46;0.82;;;0.63;;
49061;SDS011;34873;49.142;9.118;2023-11-22T09:45:17;1.33;;;0.70;;
49061;SDS011;34873;49.142;9.118;2023-11-22T09:47:48;2.22;;;0.63;;
49061;SDS011;34873;49.142;9.118;2023-11-22T09:50:20;0.95;;;0.60;;
49061;SDS011;34873;49.142;9.118;2023-11-22T09:52:50;0.95;;;0.88;;
49061;SDS011;34873;49.142;9.118;2023-11-22T09:55:19;2.47;;;0.60;;
49061;SDS011;34873;49.142;9.118;2023-11-22T09:57:48;1.45;;;0.80;;
49061;SDS011;34873;49.142;9.118;2023-11-22T10:00:16;1.38;;;0.70;;
49061;SDS011;34873;49.142;9.118;2023-11-22T10:02:45;1.42;;;1.20;;
49061;SDS011;34873;49.142;9.118;2023-11-22T10:05:14;1.05;;;0.50;;
49061;SDS011;34873;49.142;9.118;2023-11-22T10:07:39;1.45;;;0.70;;
49061;SDS011;34873;49.142;9.118;2023-11-22T10:10:12;1.10;;;0.80;;
49061;SDS011;34873;49.142;9.118;2023-11-22T10:12:42;0.77;;;0.77;;
49061;SDS011;34873;49.142;9.118;2023-11-22T10:15:14;3.50;;;0.80;;
49061;SDS011;34873;49.142;9.118;2023-11-22T10:17:56;0.73;;;0.70;;
49061;SDS011;34873;49.142;9.118;2023-11-22T10:20:41;0.85;;;0.65;;
49061;SDS011;34873;49.142;9.118;2023-11-22T10:23:18;2.03;;;0.63;;
49061;SDS011;34873;49.142;9.118;2023-11-22T10:25:50;1.70;;;0.82;;
49061;SDS011;34873;49.142;9.118;2023-11-22T10:28:17;2.75;;;1.00;;
49061;SDS011;34873;49.142;9.118;2023-11-22T10:30:49;0.80;;;0.70;;
49061;SDS011;34873;49.142;9.118;2023-11-22T10:33:16;1.30;;;0.88;;
49061;SDS011;34873;49.142;9.118;2023-11-22T10:35:46;1.77;;;1.25;;
49061;SDS011;34873;49.142;9.118;2023-11-22T10:38:22;0.80;;;0.80;;
49061;SDS011;34873;49.142;9.118;2023-11-22T10:40:47;1.15;;;1.05;;
49061;SDS011;34873;49.142;9.118;2023-11-22T10:43:17;1.60;;;0.95;;
49061;SDS011;34873;49.142;9.118;2023-11-22T10:45:43;1.65;;;0.98;;
49061;SDS011;34873;49.142;9.118;2023-11-22T10:48:13;1.98;;;0.85;;
49061;SDS011;34873;49.142;9.118;2023-11-22T10:50:46;2.15;;;1.10;;
49061;SDS011;34873;49.142;9.118;2023-11-22T10:53:13;1.23;;;0.98;;
49061;SDS011;34873;49.142;9.118;2023-11-22T10:55:46;1.20;;;1.05;;
49061;SDS011;34873;49.142;9.118;2023-11-22T10:58:14;1.73;;;0.95;;
49061;SDS011;34873;49.142;9.118;2023-11-22T11:00:42;3.05;;;1.02;;
49061;SDS011;34873;49.142;9.118;2023-11-22T11:03:14;1.80;;;0.90;;
49061;SDS011;34873;49.142;9.118;2023-11-22T11:05:49;9.90;;;2.45;;
49061;SDS011;34873;49.142;9.118;2023-11-22T11:08:16;1.35;;;0.90;;
49061;SDS011;34873;49.142;9.118;2023-11-22T11:10:45;1.20;;;1.05;;
49061;SDS011;34873;49.142;9.118;2023-11-22T11:13:11;0.95;;;0.90;;
49061;SDS011;34873;49.142;9.118;2023-11-22T11:15:38;1.73;;;0.93;;
49061;SDS011;34873;49.142;9.118;2023-11-22T11:18:07;2.50;;;1.17;;
49061;SDS011;34873;49.142;9.118;2023-11-22T11:23:36;1.20;;;1.17;;
49061;SDS011;34873;49.142;9.118;2023-11-22T11:26:08;2.70;;;1.25;;
49061;SDS011;34873;49.142;9.118;2023-11-22T11:28:47;1.35;;;1.25;;
49061;SDS011;34873;49.142;9.118;2023-11-22T11:31:15;0.90;;;0.90;;
49061;SDS011;34873;49.142;9.118;2023-11-22T11:36:23;1.02;;;0.93;;
49061;SDS011;34873;49.142;9.118;2023-11-22T11:38:56;1.40;;;1.30;;
49061;SDS011;34873;49.142;9.118;2023-11-22T11:41:26;2.10;;;1.15;;
49061;SDS011;34873;49.142;9.118;2023-11-22T11:43:57;1.35;;;1.23;;
49061;SDS011;34873;49.142;9.118;2023-11-22T11:46:26;2.40;;;1.30;;
49061;SDS011;34873;49.142;9.118;2023-11-22T11:48:53;1.50;;;1.40;;
49061;SDS011;34873;49.142;9.118;2023-11-22T11:51:22;1.48;;;1.20;;
49061;SDS011;34873;49.142;9.118;2023-11-22T11:53:48;2.10;;;1.60;;
49061;SDS011;34873;49.142;9.118;2023-11-22T11:56:16;1.17;;;1.08;;
49061;SDS011;34873;49.142;9.118;2023-11-22T11:58:43;2.13;;;1.50;;
49061;SDS011;34873;49.142;9.118;2023-11-22T12:01:11;1.45;;;1.30;;
49061;SDS011;34873;49.142;9.118;2023-11-22T12:03:38;2.20;;;1.42;;
49061;SDS011;34873;49.142;9.118;2023-11-22T12:06:08;1.90;;;1.50;;
49061;SDS011;34873;49.142;9.118;2023-11-22T12:08:37;3.15;;;1.50;;
49061;SDS011;34873;49.142;9.118;2023-11-22T12:11:02;1.52;;;1.42;;
49061;SDS011;34873;49.142;9.118;2023-11-22T12:16:13;1.50;;;1.30;;
49061;SDS011;34873;49.142;9.118;2023-11-22T12:21:17;1.73;;;1.30;;
49061;SDS011;34873;49.142;9.118;2023-11-22T12:23:46;2.22;;;1.63;;
49061;SDS011;34873;49.142;9.118;2023-11-22T12:26:15;1.80;;;1.50;;
49061;SDS011;34873;49.142;9.118;2023-11-22T12:28:48;2.17;;;1.70;;
49061;SDS011;34873;49.142;9.118;2023-11-22T12:31:20;2.88;;;1.55;;
49061;SDS011;34873;49.142;9.118;2023-11-22T12:33:49;1.80;;;1.30;;
49061;SDS011;34873;49.142;9.118;2023-11-22T12:36:17;1.73;;;1.63;;
49061;SDS011;34873;49.142;9.118;2023-11-22T12:38:46;1.60;;;1.50;;
49061;SDS011;34873;49.142;9.118;2023-11-22T12:41:14;1.70;;;1.60;;
49061;SDS011;34873;49.142;9.118;2023-11-22T12:43:43;2.17;;;1.42;;
49061;SDS011;34873;49.142;9.118;2023-11-22T12:46:28;1.83;;;1.70;;
49061;SDS011;34873;49.142;9.118;2023-11-22T12:49:15;2.65;;;1.50;;
49061;SDS011;34873;49.142;9.118;2023-11-22T12:51:48;1.67;;;1.58;;
49061;SDS011;34873;49.142;9.118;2023-11-22T12:54:19;1.60;;;1.50;;
49061;SDS011;34873;49.142;9.118;2023-11-22T12:56:53;1.85;;;1.75;;
49061;SDS011;34873;49.142;9.118;2023-11-22T12:59:24;2.85;;;1.45;;
49061;SDS011;34873;49.142;9.118;2023-11-22T13:01:58;4.07;;;1.80;;
49061;SDS011;34873;49.142;9.118;2023-11-22T13:04:25;1.60;;;1.50;;
49061;SDS011;34873;49.142;9.118;2023-11-22T13:06:54;3.30;;;1.90;;
49061;SDS011;34873;49.142;9.118;2023-11-22T13:09:20;3.17;;;1.83;;
49061;SDS011;34873;49.142;9.118;2023-11-22T13:11:48;3.00;;;1.55;;
49061;SDS011;34873;49.142;9.118;2023-11-22T13:14:19;1.80;;;1.70;;
49061;SDS011;34873;49.142;9.118;2023-11-22T13:16:44;3.25;;;1.58;;
49061;SDS011;34873;49.142;9.118;2023-11-22T13:19:10;2.58;;;1.70;;
49061;SDS011;34873;49.142;9.118;2023-11-22T13:21:38;2.83;;;1.55;;
49061;SDS011;34873;49.142;9.118;2023-11-22T13:24:06;2.08;;;1.90;;
49061;SDS011;34873;49.142;9.118;2023-11-22T13:26:34;2.10;;;1.90;;
49061;SDS011;34873;49.142;9.118;2023-11-22T13:29:00;3.00;;;1.80;;
49061;SDS011;34873;49.142;9.118;2023-11-22T13:31:27;1.80;;;1.70;;
49061;SDS011;34873;49.142;9.118;2023-11-22T13:33:55;3.75;;;1.45;;
49061;SDS011;34873;49.142;9.118;2023-11-22T13:36:21;3.75;;;1.75;;
49061;SDS011;34873;49.142;9.118;2023-11-22T13:38:49;3.47;;;1.90;;
49061;SDS011;34873;49.142;9.118;2023-11-22T13:41:17;3.33;;;1.83;;
49061;SDS011;34873;49.142;9.118;2023-11-22T13:43:43;12.70;;;2.08;;
49061;SDS011;34873;49.142;9.118;2023-11-22T13:46:08;3.25;;;1.80;;
49061;SDS011;34873;49.142;9.118;2023-11-22T13:48:37;3.25;;;1.50;;
49061;SDS011;34873;49.142;9.118;2023-11-22T13:51:03;2.60;;;1.70;;
49061;SDS011;34873;49.142;9.118;2023-11-22T13:53:33;2.33;;;2.00;;
49061;SDS011;34873;49.142;9.118;2023-11-22T13:56:08;3.45;;;1.83;;
49061;SDS011;34873;49.142;9.118;2023-11-22T13:58:34;3.45;;;2.00;;
49061;SDS011;34873;49.142;9.118;2023-11-22T14:01:03;2.50;;;2.03;;
49061;SDS011;34873;49.142;9.118;2023-11-22T14:03:31;3.45;;;2.28;;
49061;SDS011;34873;49.142;9.118;2023-11-22T14:06:01;2.97;;;1.85;;
49061;SDS011;34873;49.142;9.118;2023-11-22T14:08:33;4.35;;;1.80;;
49061;SDS011;34873;49.142;9.118;2023-11-22T14:11:00;2.15;;;1.80;;
49061;SDS011;34873;49.142;9.118;2023-11-22T14:13:26;3.08;;;1.88;;
49061;SDS011;34873;49.142;9.118;2023-11-22T14:15:52;3.60;;;1.98;;
49061;SDS011;34873;49.142;9.118;2023-11-22T14:18:20;1.88;;;1.73;;
49061;SDS011;34873;49.142;9.118;2023-11-22T14:20:45;2.30;;;1.63;;
49061;SDS011;34873;49.142;9.118;2023-11-22T14:23:11;2.55;;;1.80;;
49061;SDS011;34873;49.142;9.118;2023-11-22T14:25:36;3.90;;;2.00;;
49061;SDS011;34873;49.142;9.118;2023-11-22T14:28:02;2.90;;;2.33;;
49061;SDS011;34873;49.142;9.118;2023-11-22T14:30:28;3.72;;;2.00;;
49061;SDS011;34873;49.142;9.118;2023-11-22T14:32:56;2.53;;;2.00;;
49061;SDS011;34873;49.142;9.118;2023-11-22T14:35:23;5.65;;;1.85;;
49061;SDS011;34873;49.142;9.118;2023-11-22T14:37:51;3.22;;;2.08;;
49061;SDS011;34873;49.142;9.118;2023-11-22T14:40:18;2.38;;;2.15;;
49061;SDS011;34873;49.142;9.118;2023-11-22T14:42:47;2.75;;;2.10;;
49061;SDS011;34873;49.142;9.118;2023-11-22T14:45:17;2.40;;;2.08;;
49061;SDS011;34873;49.142;9.118;2023-11-22T14:47:44;2.53;;;1.80;;
49061;SDS011;34873;49.142;9.118;2023-11-22T14:50:10;2.25;;;2.05;;
49061;SDS011;34873;49.142;9.118;2023-11-22T14:52:39;2.35;;;2.10;;
49061;SDS011;34873;49.142;9.118;2023-11-22T14:55:05;2.35;;;2.15;;
49061;SDS011;34873;49.142;9.118;2023-11-22T14:57:36;4.35;;;2.20;;
49061;SDS011;34873;49.142;9.118;2023-11-22T15:00:02;3.22;;;1.63;;
49061;SDS011;34873;49.142;9.118;2023-11-22T15:02:31;2.42;;;2.22;;